Time;durP1;ratioP1;P1;durP2;ratioP2;P2;SDS_P1;SDS_P2;PMS_P1;PMS_P2;Temp;Humidity;BMP_temperature;BMP_pressure;BME280_temperature;BME280_humidity;BME280_pressure;Samples;Min_cycle;Max_cycle;Signal;HPM_P1;HPM_P2
2022/06/01 00:01:11;;;;;;;14.30;10.30;;;13.80;99.90;;;;;;10489463;28;20021;-84
2022/06/01 00:06:13;;;;;;;14.70;11.02;;;13.90;99.90;;;;;;10489416;28;20028;-87
2022/06/01 00:11:13;;;;;;;21.75;11.25;;;13.90;99.90;;;;;;10487863;28;20862;-84
2022/06/01 00:16:14;;;;;;;14.57;10.80;;;13.90;99.90;;;;;;10490089;28;20152;-85
2022/06/01 00:21:15;;;;;;;16.25;11.57;;;13.90;99.90;;;;;;10485627;28;20025;-84
2022/06/01 00:26:16;;;;;;;15.25;10.80;;;14.00;99.90;;;;;;10488082;28;20032;-84
2022/06/01 00:31:16;;;;;;;17.27;11.43;;;14.00;99.90;;;;;;10488274;28;20099;-85
2022/06/01 00:36:17;;;;;;;18.10;12.20;;;13.90;99.90;;;;;;10484678;28;20045;-84
2022/06/01 00:41:18;;;;;;;17.00;12.30;;;14.10;99.90;;;;;;10482154;28;20045;-84
2022/06/01 00:46:19;;;;;;;17.33;11.90;;;14.10;99.90;;;;;;10486288;28;20494;-84
2022/06/01 00:51:24;;;;;;;18.50;12.00;;;14.10;99.90;;;;;;10479065;28;20024;-83
2022/06/01 00:56:34;;;;;;;18.60;11.93;;;14.10;99.90;;;;;;10487475;28;20862;-86
2022/06/01 01:01:36;;;;;;;17.15;11.45;;;14.00;99.90;;;;;;10483258;28;20043;-83
2022/06/01 01:06:39;;;;;;;17.17;11.73;;;14.10;99.90;;;;;;10471828;28;20089;-83
2022/06/01 01:11:50;;;;;;;21.55;13.30;;;14.30;99.90;;;;;;10485245;28;20028;-84
2022/06/01 01:16:52;;;;;;;18.30;12.75;;;14.40;99.90;;;;;;10481744;28;20036;-84
2022/06/01 01:22:16;;;;;;;16.10;12.85;;;14.40;99.90;;;;;;10480176;28;20170;-84
2022/06/01 01:27:17;;;;;;;17.10;12.75;;;14.30;99.90;;;;;;10442250;28;20045;-83
2022/06/01 01:32:17;;;;;;;20.33;14.32;;;14.30;99.90;;;;;;10486758;28;20376;-85
2022/06/01 01:37:24;;;;;;;11.38;8.07;;;14.30;99.90;;;;;;10487326;28;20060;-84
2022/06/01 01:42:25;;;;;;;12.15;7.57;;;14.40;99.90;;;;;;10486662;28;20039;-83
2022/06/01 01:47:28;;;;;;;10.82;7.07;;;14.40;99.90;;;;;;10486410;28;20036;-83
2022/06/01 01:52:29;;;;;;;9.55;6.00;;;14.50;99.90;;;;;;10485027;28;20119;-84
2022/06/01 01:57:47;;;;;;;11.18;5.03;;;14.50;99.90;;;;;;10485100;28;20033;-83
2022/06/01 02:03:10;;;;;;;6.65;4.80;;;14.50;99.90;;;;;;10488769;28;20028;-84
2022/06/01 02:08:33;;;;;;;7.18;4.45;;;14.40;99.90;;;;;;10489160;28;20028;-82
2022/06/01 02:13:34;;;;;;;7.53;5.03;;;14.40;99.90;;;;;;10466589;28;20064;-82
2022/06/01 02:18:41;;;;;;;5.43;4.45;;;14.40;99.90;;;;;;10493266;28;20020;-83
2022/06/01 02:23:43;;;;;;;7.60;4.68;;;14.30;99.90;;;;;;10492870;28;20059;-85
2022/06/01 02:28:46;;;;;;;5.85;4.30;;;14.30;99.90;;;;;;10483741;28;20261;-83
2022/06/01 02:33:49;;;;;;;5.30;4.22;;;14.20;99.90;;;;;;10493377;28;20033;-83
2022/06/01 02:38:51;;;;;;;7.80;4.55;;;14.20;99.90;;;;;;10493424;28;20063;-84
2022/06/01 02:43:52;;;;;;;5.65;4.15;;;14.20;99.90;;;;;;10479293;28;20107;-81
2022/06/01 02:48:53;;;;;;;4.90;4.40;;;14.10;99.90;;;;;;10490184;28;20025;-83
2022/06/01 02:53:54;;;;;;;7.22;5.40;;;14.10;99.90;;;;;;10480516;28;20048;-82
2022/06/01 02:58:54;;;;;;;6.22;4.90;;;14.10;99.90;;;;;;10482294;28;20039;-83
2022/06/01 03:03:55;;;;;;;8.40;5.53;;;14.10;99.90;;;;;;10484406;28;20029;-86
2022/06/01 03:08:56;;;;;;;5.70;4.30;;;14.10;99.90;;;;;;10491795;28;20036;-86
2022/06/01 03:13:57;;;;;;;4.05;3.45;;;14.00;99.90;;;;;;10491449;28;20082;-89
2022/06/01 03:18:57;;;;;;;5.15;4.50;;;14.10;99.90;;;;;;10492221;28;20357;-87
2022/06/01 03:23:58;;;;;;;6.03;4.03;;;14.10;99.90;;;;;;10489474;28;20135;-85
2022/06/01 03:28:58;;;;;;;5.00;4.50;;;14.10;99.90;;;;;;10491361;28;20031;-83
2022/06/01 03:33:59;;;;;;;4.40;3.80;;;14.10;99.90;;;;;;10489007;28;20496;-85
2022/06/01 03:39:00;;;;;;;5.25;4.68;;;14.00;99.90;;;;;;10488047;28;20056;-84
2022/06/01 03:49:20;;;;;;;5.90;4.32;;;14.00;99.90;;;;;;10486254;28;20474;-82
2022/06/01 03:54:20;;;;;;;5.78;4.50;;;13.90;99.90;;;;;;10491725;28;20036;-84
2022/06/01 03:59:21;;;;;;;3.60;3.30;;;13.90;99.90;;;;;;10488305;28;20040;-87
2022/06/01 04:04:21;;;;;;;4.05;3.20;;;13.80;99.90;;;;;;10485440;28;20032;-84
2022/06/01 04:09:22;;;;;;;5.20;3.33;;;13.80;99.90;;;;;;10490666;28;20036;-85
2022/06/01 04:14:23;;;;;;;4.88;3.28;;;13.70;99.90;;;;;;10474801;28;20129;-84
2022/06/01 04:19:24;;;;;;;5.43;3.03;;;13.70;99.90;;;;;;10485754;28;20495;-83
2022/06/01 04:24:28;;;;;;;6.78;3.25;;;13.70;99.90;;;;;;10482585;28;20036;-81
2022/06/01 04:29:28;;;;;;;5.13;3.30;;;13.60;99.90;;;;;;10475496;28;20673;-83
2022/06/01 04:34:30;;;;;;;4.72;2.83;;;13.60;99.90;;;;;;10474937;28;20036;-85
2022/06/01 04:39:30;;;;;;;5.65;3.10;;;13.60;99.90;;;;;;10487245;28;20113;-86
2022/06/01 04:44:31;;;;;;;4.10;3.25;;;13.50;99.90;;;;;;10484584;28;20113;-85
2022/06/01 04:49:31;;;;;;;5.30;3.30;;;13.50;99.90;;;;;;10459577;28;20396;-86
2022/06/01 04:54:32;;;;;;;7.20;5.85;;;13.40;99.90;;;;;;10489187;28;20521;-87
2022/06/01 04:59:33;;;;;;;8.45;6.38;;;13.30;99.90;;;;;;10488968;28;20021;-87
2022/06/01 05:04:34;;;;;;;9.30;5.53;;;13.20;99.90;;;;;;10487243;28;20471;-85
2022/06/01 05:09:35;;;;;;;8.93;5.38;;;13.10;99.90;;;;;;10486382;28;20032;-85
2022/06/01 05:14:35;;;;;;;7.10;5.68;;;13.10;99.90;;;;;;10487176;28;20045;-88
2022/06/01 05:19:36;;;;;;;8.07;5.78;;;13.10;99.90;;;;;;10489481;28;20353;-85
2022/06/01 05:24:36;;;;;;;8.20;5.32;;;13.20;99.90;;;;;;10486418;28;20078;-85
2022/06/01 05:29:37;;;;;;;11.63;6.63;;;13.40;99.90;;;;;;10486414;28;20036;-84
2022/06/01 05:34:38;;;;;;;7.68;6.35;;;13.60;99.90;;;;;;10487641;28;20032;-85
2022/06/01 05:39:38;;;;;;;13.32;10.77;;;13.80;99.90;;;;;;10487421;28;20063;-86
2022/06/01 05:44:39;;;;;;;18.73;13.23;;;14.00;99.90;;;;;;10486939;28;20058;-86
2022/06/01 05:49:39;;;;;;;16.50;11.32;;;14.30;99.90;;;;;;10485855;28;20059;-85
2022/06/01 05:54:40;;;;;;;11.65;9.35;;;14.50;99.90;;;;;;10485977;28;20480;-86
2022/06/01 05:59:41;;;;;;;9.88;7.88;;;14.60;99.90;;;;;;10471987;28;20123;-86
2022/06/01 06:04:41;;;;;;;11.70;7.82;;;14.80;99.90;;;;;;10487552;28;20047;-86
2022/06/01 06:09:42;;;;;;;12.75;8.48;;;15.00;99.90;;;;;;10479508;28;20029;-84
2022/06/01 06:14:43;;;;;;;15.77;10.85;;;15.30;99.90;;;;;;10472246;28;20025;-87
2022/06/01 06:19:43;;;;;;;12.32;10.10;;;15.50;99.90;;;;;;10486610;28;20088;-86
2022/06/01 06:24:44;;;;;;;15.30;10.07;;;15.70;99.90;;;;;;10486864;28;20036;-86
2022/06/01 06:29:45;;;;;;;12.20;8.93;;;16.00;99.90;;;;;;10472504;28;20060;-85
2022/06/01 06:34:45;;;;;;;9.45;6.70;;;16.10;99.90;;;;;;10484967;28;20044;-86
2022/06/01 06:39:46;;;;;;;10.93;6.60;;;16.20;99.90;;;;;;10486552;28;20057;-85
2022/06/01 06:44:47;;;;;;;8.45;6.78;;;16.20;99.90;;;;;;10486120;28;20550;-85
2022/06/01 06:49:48;;;;;;;9.95;6.82;;;16.20;99.90;;;;;;10490873;28;20124;-85
2022/06/01 06:54:48;;;;;;;8.10;6.75;;;16.30;99.90;;;;;;10493743;28;20036;-87
2022/06/01 06:59:49;;;;;;;9.68;7.15;;;16.60;99.90;;;;;;10494752;28;20028;-85
2022/06/01 07:04:50;;;;;;;7.85;6.22;;;16.80;99.90;;;;;;10480986;28;20389;-84
2022/06/01 07:09:51;;;;;;;8.85;6.30;;;16.80;99.90;;;;;;10479196;28;20021;-85
2022/06/01 07:14:51;;;;;;;8.38;5.72;;;16.80;99.90;;;;;;10478173;28;20123;-85
2022/06/01 07:19:54;;;;;;;7.70;5.03;;;17.00;99.90;;;;;;10475872;28;20872;-85
2022/06/01 07:24:54;;;;;;;5.32;4.45;;;18.00;99.90;;;;;;10484302;28;20040;-86
2022/06/01 07:29:55;;;;;;;7.60;5.45;;;17.90;99.90;;;;;;10487701;28;20036;-85
2022/06/01 07:34:56;;;;;;;6.78;5.38;;;17.90;99.90;;;;;;10475950;28;20125;-85
2022/06/01 07:45:15;;;;;;;8.18;6.20;;;17.90;99.90;;;;;;10490140;28;20512;-88
2022/06/01 07:50:16;;;;;;;9.65;4.90;;;17.70;99.90;;;;;;10474930;28;20012;-85
2022/06/01 07:55:16;;;;;;;6.97;5.05;;;17.50;99.90;;;;;;10478296;28;20037;-83
2022/06/01 08:00:18;;;;;;;8.25;4.75;;;17.40;99.90;;;;;;10471582;28;20025;-84
2022/06/01 08:05:20;;;;;;;5.63;4.55;;;17.80;99.90;;;;;;10485912;28;20036;-85
2022/06/01 08:10:22;;;;;;;6.45;4.50;;;18.30;99.90;;;;;;10489378;28;20025;-83
2022/06/01 08:15:23;;;;;;;4.38;3.35;;;18.40;99.90;;;;;;10488027;28;20036;-84
2022/06/01 08:20:25;;;;;;;5.47;3.75;;;18.90;99.90;;;;;;10483066;28;20055;-84
2022/06/01 08:25:28;;;;;;;4.20;3.42;;;19.40;99.90;;;;;;10485920;28;20730;-85
2022/06/01 08:30:31;;;;;;;5.63;4.28;;;19.10;99.90;;;;;;10484479;28;20392;-83
2022/06/01 08:35:40;;;;;;;4.95;3.83;;;19.50;99.90;;;;;;10472085;28;20068;-82
2022/06/01 08:40:48;;;;;;;3.75;2.90;;;19.30;99.90;;;;;;10488523;28;20049;-86
2022/06/01 08:45:55;;;;;;;7.53;3.30;;;18.90;99.90;;;;;;10482657;28;20031;-82
2022/06/01 08:50:56;;;;;;;4.35;2.80;;;19.30;99.90;;;;;;10486496;28;20154;-83
2022/06/01 08:56:10;;;;;;;5.18;2.58;;;19.70;99.90;;;;;;10481682;28;20036;-83
2022/06/01 09:01:18;;;;;;;5.88;2.88;;;20.10;99.90;;;;;;10482060;28;20047;-82
2022/06/01 09:06:26;;;;;;;4.72;3.17;;;20.30;99.90;;;;;;10479365;28;20036;-83
2022/06/01 09:11:32;;;;;;;4.53;2.97;;;20.80;99.90;;;;;;10478506;28;20503;-86
2022/06/01 09:16:39;;;;;;;5.30;3.75;;;21.10;99.90;;;;;;10481351;28;20098;-84
2022/06/01 09:27:09;;;;;;;4.45;3.13;;;21.60;99.90;;;;;;10484864;28;20037;-84
2022/06/01 09:32:23;;;;;;;3.72;3.15;;;22.00;99.90;;;;;;10483626;28;20620;-87
2022/06/01 09:37:47;;;;;;;4.15;2.95;;;22.50;95.10;;;;;;10485400;28;20060;-83
2022/06/01 09:42:50;;;;;;;3.60;2.75;;;22.60;95.60;;;;;;10485252;28;20387;-83
2022/06/01 09:47:53;;;;;;;3.30;2.90;;;22.70;91.40;;;;;;10485397;28;20108;-87
2022/06/01 09:52:59;;;;;;;4.43;2.88;;;23.00;86.90;;;;;;10484496;28;20023;-87
2022/06/01 09:58:04;;;;;;;3.67;2.08;;;23.50;84.50;;;;;;10481147;28;20029;-83
2022/06/01 10:08:35;;;;;;;2.58;2.25;;;24.10;82.30;;;;;;10477279;28;20033;-84
2022/06/01 10:13:47;;;;;;;2.42;2.17;;;24.10;76.30;;;;;;10476211;28;20060;-83
2022/06/01 10:18:48;;;;;;;5.45;2.30;;;24.10;75.40;;;;;;10480989;28;20384;-84
2022/06/01 10:24:04;;;;;;;3.55;2.42;;;24.10;73.40;;;;;;10471942;28;20032;-83
2022/06/01 10:29:18;;;;;;;6.35;2.17;;;24.40;68.70;;;;;;10480520;28;20032;-83
2022/06/01 10:34:23;;;;;;;3.23;2.03;;;24.20;69.10;;;;;;10490566;28;20040;-83
2022/06/01 10:39:42;;;;;;;;;;;24.00;68.80;;;;;;10490528;28;20060;-84
2022/06/01 10:45:08;;;;;;;2.50;2.13;;;24.00;68.30;;;;;;10486454;28;19912;-83
2022/06/01 10:50:16;;;;;;;4.20;2.60;;;23.50;69.90;;;;;;10486185;28;20009;-83
2022/06/01 10:55:31;;;;;;;2.65;1.88;;;24.20;69.80;;;;;;10493105;28;20032;-84
2022/06/01 11:01:00;;;;;;;4.93;3.40;;;24.40;67.40;;;;;;10487776;28;20124;-83
2022/06/01 11:06:15;;;;;;;4.25;2.00;;;24.00;68.70;;;;;;10494204;28;20024;-83
2022/06/01 11:11:24;;;;;;;3.22;1.73;;;23.80;70.40;;;;;;10494240;28;20139;-81
2022/06/01 11:16:38;;;;;;;3.22;1.70;;;23.60;66.60;;;;;;10493876;28;20036;-83
2022/06/01 11:22:10;;;;;;;2.13;1.70;;;23.50;67.80;;;;;;10492835;28;20173;-82
2022/06/01 11:27:35;;;;;;;1.90;1.42;;;23.00;67.00;;;;;;10493091;28;20570;-82
2022/06/01 11:32:59;;;;;;;1.60;1.40;;;22.60;65.40;;;;;;10475959;28;20459;-87
2022/06/01 11:38:09;;;;;;;8.82;5.03;;;22.10;63.90;;;;;;10469424;28;20482;-84
2022/06/01 11:43:29;;;;;;;3.28;2.17;;;21.50;65.90;;;;;;10488688;28;20028;-83
2022/06/01 11:48:38;;;;;;;5.18;2.40;;;21.10;64.80;;;;;;10480344;28;20885;-84
2022/06/01 11:53:41;;;;;;;4.43;1.50;;;21.20;65.30;;;;;;10475168;28;20029;-86
2022/06/01 11:58:55;;;;;;;2.20;1.10;;;21.90;64.30;;;;;;10475329;28;20495;-85
2022/06/01 12:04:09;;;;;;;1.13;1.02;;;22.30;63.20;;;;;;10481588;28;20017;-87
2022/06/01 12:09:28;;;;;;;1.60;1.20;;;23.30;59.20;;;;;;10486791;28;20023;-84
2022/06/01 12:14:40;;;;;;;2.45;1.40;;;24.00;59.40;;;;;;10476593;28;20104;-85
2022/06/01 12:19:47;;;;;;;1.67;1.40;;;24.40;58.70;;;;;;10483478;28;20055;-82
2022/06/01 12:30:18;;;;;;;5.13;1.48;;;24.90;60.90;;;;;;10485091;28;20380;-81
2022/06/01 12:35:20;;;;;;;2.28;1.38;;;25.20;59.00;;;;;;10471759;28;20037;-83
2022/06/01 12:40:21;;;;;;;3.58;1.52;;;25.20;60.20;;;;;;10485521;28;20633;-85
2022/06/01 12:45:34;;;;;;;2.67;1.60;;;25.20;58.70;;;;;;10481484;28;20028;-82
2022/06/01 12:50:51;;;;;;;2.80;1.63;;;25.20;58.60;;;;;;10500218;22;20135;-83
2022/06/01 12:56:09;;;;;;;3.70;1.67;;;25.20;57.90;;;;;;10485523;28;20025;-84
2022/06/01 13:01:11;;;;;;;3.25;1.75;;;24.60;57.20;;;;;;10476082;22;20109;-80
2022/06/01 13:06:16;;;;;;;2.60;1.35;;;23.90;59.00;;;;;;10475678;28;20017;-83
2022/06/01 13:11:29;;;;;;;3.55;1.60;;;24.30;59.70;;;;;;10460265;28;20017;-83
2022/06/01 13:16:45;;;;;;;2.08;1.55;;;24.60;61.70;;;;;;10482979;28;20045;-84
2022/06/01 13:21:56;;;;;;;2.70;1.52;;;24.80;60.50;;;;;;10450239;28;20029;-84
2022/06/01 13:26:58;;;;;;;2.72;1.50;;;25.10;59.30;;;;;;10456526;28;20040;-83
2022/06/01 13:32:06;;;;;;;4.90;2.03;;;25.10;59.80;;;;;;10461223;28;20045;-82
2022/06/01 13:37:17;;;;;;;2.75;1.77;;;25.00;57.80;;;;;;10453645;28;20029;-82
2022/06/01 13:42:34;;;;;;;2.83;1.63;;;24.80;58.70;;;;;;10449305;28;20159;-84
2022/06/01 13:47:59;;;;;;;3.80;1.60;;;24.80;61.60;;;;;;10465831;28;20036;-84
2022/06/01 13:53:10;;;;;;;2.57;1.70;;;25.00;61.60;;;;;;10452689;28;20153;-84
2022/06/01 13:58:20;;;;;;;4.22;1.80;;;24.90;61.60;;;;;;10455658;28;20020;-84
2022/06/01 14:03:32;;;;;;;5.28;1.90;;;25.10;61.70;;;;;;10481659;28;20127;-84
2022/06/01 14:08:50;;;;;;;3.55;1.42;;;25.40;60.20;;;;;;10453038;28;20109;-84
2022/06/01 14:13:51;;;;;;;1.85;1.60;;;25.50;59.10;;;;;;10454542;28;20072;-86
2022/06/01 14:19:00;;;;;;;5.53;1.40;;;25.20;58.30;;;;;;10464089;28;20654;-83
2022/06/01 14:24:01;;;;;;;1.52;1.42;;;25.30;58.00;;;;;;10452859;28;20511;-82
2022/06/01 14:29:06;;;;;;;4.60;1.50;;;25.20;56.60;;;;;;10467060;28;20048;-83
2022/06/01 14:34:09;;;;;;;1.50;1.40;;;24.80;56.60;;;;;;10456171;28;20036;-85
2022/06/01 14:39:10;;;;;;;2.47;1.77;;;24.60;58.00;;;;;;10468239;28;20028;-85
2022/06/01 14:44:24;;;;;;;1.70;1.42;;;24.60;57.20;;;;;;10458255;28;20031;-85
2022/06/01 14:49:24;;;;;;;2.40;1.45;;;24.60;59.40;;;;;;10450750;28;20032;-84
2022/06/01 14:54:28;;;;;;;1.95;1.65;;;24.30;58.10;;;;;;10454352;28;20442;-84
2022/06/01 14:59:29;;;;;;;2.40;1.57;;;23.70;59.50;;;;;;10456654;28;20024;-84
2022/06/01 15:04:34;;;;;;;4.05;2.00;;;23.50;61.40;;;;;;10448087;28;20040;-84
2022/06/01 15:09:38;;;;;;;3.08;1.60;;;23.40;59.60;;;;;;10461163;28;20017;-83
2022/06/01 15:14:39;;;;;;;6.15;1.55;;;23.10;60.20;;;;;;10460590;28;20086;-84
2022/06/01 15:19:43;;;;;;;2.75;1.38;;;23.10;63.60;;;;;;10459928;28;20754;-83
2022/06/01 15:24:45;;;;;;;1.60;1.48;;;23.40;62.70;;;;;;10468084;28;20029;-84
2022/06/01 15:40:26;;;;;;;4.90;1.90;;;23.50;60.80;;;;;;10469967;28;20040;-83
2022/06/01 15:45:34;;;;;;;1.75;1.50;;;23.60;60.80;;;;;;10465209;28;20021;-85
2022/06/01 15:50:40;;;;;;;3.30;1.48;;;23.70;60.00;;;;;;10472289;28;20119;-86
2022/06/01 15:55:41;;;;;;;3.25;1.52;;;23.60;59.80;;;;;;10467207;28;20033;-86
2022/06/01 16:00:43;;;;;;;2.60;1.55;;;23.50;59.20;;;;;;10471725;28;20078;-82
2022/06/01 16:05:45;;;;;;;2.90;1.63;;;23.30;59.60;;;;;;10476933;28;20100;-82
2022/06/01 16:10:46;;;;;;;3.92;2.33;;;23.20;59.80;;;;;;10478835;28;20380;-87
2022/06/01 16:15:49;;;;;;;6.75;3.40;;;23.00;59.50;;;;;;10474054;28;20049;-84
2022/06/01 16:20:50;;;;;;;3.40;1.90;;;22.80;61.30;;;;;;10455824;28;20044;-84
2022/06/01 16:25:52;;;;;;;6.43;2.40;;;22.50;61.70;;;;;;10458725;28;20047;-84
2022/06/01 16:30:54;;;;;;;5.22;2.75;;;22.10;63.30;;;;;;10458766;28;20107;-86
2022/06/01 16:35:55;;;;;;;4.57;2.72;;;22.00;63.00;;;;;;10476280;28;20444;-85
2022/06/01 16:40:59;;;;;;;1.83;1.70;;;21.90;63.20;;;;;;10459323;28;20029;-84
2022/06/01 16:46:01;;;;;;;2.28;1.60;;;21.80;62.20;;;;;;10465021;28;20040;-84
2022/06/01 16:51:02;;;;;;;5.47;2.47;;;21.60;62.50;;;;;;10459157;28;20070;-86
2022/06/01 16:56:04;;;;;;;2.65;2.08;;;21.40;63.50;;;;;;10469212;28;20041;-83
2022/06/01 17:01:05;;;;;;;6.50;3.38;;;21.20;65.30;;;;;;10457605;28;20049;-84
2022/06/01 17:06:07;;;;;;;5.03;2.67;;;20.80;68.00;;;;;;10454841;28;20021;-86
2022/06/01 17:11:07;;;;;;;5.80;2.90;;;20.40;71.40;;;;;;10462138;28;20073;-83
2022/06/01 17:16:11;;;;;;;5.65;3.15;;;20.10;73.30;;;;;;10457042;28;20039;-84
2022/06/01 17:21:16;;;;;;;3.90;2.42;;;20.10;72.20;;;;;;10457779;28;20029;-86
2022/06/01 17:26:18;;;;;;;6.32;2.63;;;20.10;72.80;;;;;;10460574;28;20028;-84
2022/06/01 17:31:21;;;;;;;4.05;2.55;;;19.80;74.10;;;;;;10469979;28;20020;-84
2022/06/01 17:36:22;;;;;;;5.32;2.97;;;19.60;75.30;;;;;;10484715;28;20123;-84
2022/06/01 17:41:23;;;;;;;5.13;2.60;;;19.50;75.20;;;;;;10464530;28;20028;-83
2022/06/01 17:46:25;;;;;;;5.40;3.35;;;19.30;76.20;;;;;;10445074;28;20025;-84
2022/06/01 17:51:26;;;;;;;5.72;3.00;;;19.10;77.50;;;;;;10446262;28;20099;-85
2022/06/01 17:56:31;;;;;;;6.10;3.13;;;18.80;78.70;;;;;;10448457;28;20044;-85
2022/06/01 18:01:32;;;;;;;6.32;2.97;;;18.60;80.90;;;;;;10450623;28;20049;-84
2022/06/01 18:06:33;;;;;;;5.25;3.42;;;18.40;80.40;;;;;;10455462;28;20379;-83
2022/06/01 18:11:34;;;;;;;5.15;3.88;;;18.10;81.90;;;;;;10467010;28;20806;-84
2022/06/01 18:16:38;;;;;;;7.63;4.50;;;17.90;81.80;;;;;;10470307;28;20045;-85
2022/06/01 18:21:38;;;;;;;8.90;4.80;;;17.60;84.60;;;;;;10466146;28;20108;-86
2022/06/01 18:26:40;;;;;;;4.85;3.83;;;17.40;86.20;;;;;;10459239;28;20025;-84
2022/06/01 18:31:42;;;;;;;4.07;3.38;;;17.10;87.00;;;;;;10474309;28;20086;-83
2022/06/01 18:36:43;;;;;;;7.00;3.80;;;16.90;87.70;;;;;;10468279;28;20075;-85
2022/06/01 18:41:48;;;;;;;8.45;4.25;;;16.70;90.40;;;;;;10457949;28;20758;-86
2022/06/01 18:46:48;;;;;;;7.93;4.53;;;16.60;91.10;;;;;;10473718;28;20099;-84
2022/06/01 18:51:50;;;;;;;7.85;4.85;;;16.40;92.10;;;;;;10463802;28;20033;-85
2022/06/01 18:56:51;;;;;;;9.38;4.10;;;16.30;93.60;;;;;;10462602;28;20052;-82
2022/06/01 19:01:51;;;;;;;6.13;3.80;;;16.20;95.70;;;;;;10455194;28;20573;-84
2022/06/01 19:06:54;;;;;;;5.00;3.63;;;16.10;95.40;;;;;;10471939;28;20029;-84
2022/06/01 19:11:55;;;;;;;5.00;4.00;;;16.10;96.10;;;;;;10458636;28;20036;-85
2022/06/01 19:16:58;;;;;;;6.75;4.10;;;16.00;97.40;;;;;;10462669;28;20032;-87
2022/06/01 19:22:04;;;;;;;6.50;4.40;;;15.90;97.80;;;;;;10470623;28;20111;-85
2022/06/01 19:27:10;;;;;;;5.88;4.35;;;15.80;99.40;;;;;;10464607;28;20114;-84
2022/06/01 19:32:10;;;;;;;5.80;4.13;;;15.70;99.90;;;;;;10468069;28;20504;-83
2022/06/01 19:48:06;;;;;;;7.28;4.32;;;15.10;99.90;;;;;;10436833;28;20113;-84
2022/06/01 19:53:07;;;;;;;8.35;5.45;;;14.90;99.90;;;;;;10468607;28;20028;-84
2022/06/01 19:58:08;;;;;;;8.85;5.68;;;14.80;99.90;;;;;;10459784;28;20036;-84
2022/06/01 20:03:08;;;;;;;6.45;4.60;;;14.70;99.90;;;;;;10456844;28;20041;-85
2022/06/01 20:08:09;;;;;;;9.35;4.82;;;14.70;99.90;;;;;;10471208;28;20591;-85
2022/06/01 20:13:16;;;;;;;8.68;5.95;;;14.70;99.90;;;;;;10470428;28;20431;-84
2022/06/01 20:18:20;;;;;;;11.38;6.68;;;14.80;99.90;;;;;;10469129;28;20567;-85
2022/06/01 20:23:20;;;;;;;8.95;6.22;;;14.80;99.90;;;;;;10450611;28;20381;-84
2022/06/01 20:28:21;;;;;;;12.15;5.70;;;14.80;99.90;;;;;;10469201;28;20048;-86
2022/06/01 20:33:21;;;;;;;7.20;5.18;;;14.70;99.90;;;;;;10467771;28;20746;-84
2022/06/01 20:38:22;;;;;;;8.27;5.70;;;14.70;99.90;;;;;;10472818;28;20028;-84
2022/06/01 20:43:23;;;;;;;8.02;6.28;;;14.60;99.90;;;;;;10453434;28;20025;-85
2022/06/01 20:48:23;;;;;;;10.75;7.32;;;14.60;99.90;;;;;;10471618;28;20028;-85
2022/06/01 20:53:26;;;;;;;10.57;7.47;;;14.60;99.90;;;;;;10480071;28;20046;-84
2022/06/01 20:58:27;;;;;;;10.20;6.70;;;14.40;99.90;;;;;;10475967;28;20058;-85
2022/06/01 21:03:27;;;;;;;11.07;7.28;;;14.30;99.90;;;;;;10475693;28;20060;-84
2022/06/01 21:08:29;;;;;;;12.70;8.55;;;14.30;99.90;;;;;;10474808;28;20047;-84
2022/06/01 21:13:30;;;;;;;10.70;7.90;;;14.10;99.90;;;;;;10478097;28;20571;-84
2022/06/01 21:18:33;;;;;;;11.32;7.88;;;14.00;99.90;;;;;;10470593;28;20043;-84
2022/06/01 21:23:34;;;;;;;11.45;7.50;;;13.90;99.90;;;;;;10473804;28;20032;-85
2022/06/01 21:28:36;;;;;;;12.13;8.10;;;13.90;99.90;;;;;;10471559;28;20039;-86
2022/06/01 21:33:38;;;;;;;12.88;7.85;;;13.90;99.90;;;;;;10451721;28;20037;-85
2022/06/01 21:38:39;;;;;;;12.63;8.77;;;13.90;99.90;;;;;;10452230;28;20021;-89
2022/06/01 21:43:40;;;;;;;10.85;7.80;;;13.90;99.90;;;;;;10454572;28;20024;-85
2022/06/01 21:48:41;;;;;;;10.02;7.10;;;14.00;99.90;;;;;;10447559;28;20033;-87
2022/06/01 21:53:42;;;;;;;11.40;7.60;;;14.10;99.90;;;;;;10449575;28;20037;-85
2022/06/01 21:58:42;;;;;;;12.10;8.48;;;14.20;99.90;;;;;;10455716;28;20530;-86
2022/06/01 22:03:43;;;;;;;11.93;8.77;;;14.20;99.90;;;;;;10444255;28;20136;-87
2022/06/01 22:08:43;;;;;;;14.50;8.55;;;14.20;99.90;;;;;;10452677;28;20036;-88
2022/06/01 22:13:44;;;;;;;10.43;7.32;;;14.30;99.90;;;;;;10461078;28;20037;-85
2022/06/01 22:18:45;;;;;;;12.32;9.15;;;14.40;99.90;;;;;;10458017;28;20052;-85
2022/06/01 22:23:46;;;;;;;10.50;8.23;;;14.50;99.90;;;;;;10451964;28;20372;-87
2022/06/01 22:28:46;;;;;;;12.07;9.27;;;14.50;99.90;;;;;;10460847;28;20074;-85
2022/06/01 22:33:47;;;;;;;12.52;8.48;;;14.60;99.90;;;;;;10455162;28;20108;-89
2022/06/01 22:38:47;;;;;;;12.45;7.80;;;14.70;99.90;;;;;;10474119;28;20028;-86
2022/06/01 22:43:48;;;;;;;12.85;8.40;;;14.70;99.90;;;;;;10453249;28;20120;-87
2022/06/01 22:48:49;;;;;;;11.88;8.05;;;14.70;99.90;;;;;;10458469;28;20128;-87
2022/06/01 22:53:50;;;;;;;12.60;8.95;;;14.70;99.90;;;;;;10462984;28;20063;-86
2022/06/01 22:58:52;;;;;;;11.80;9.10;;;14.70;99.90;;;;;;10465978;28;20033;-86
2022/06/01 23:03:53;;;;;;;12.50;9.20;;;14.60;99.90;;;;;;10458958;28;20123;-86
2022/06/01 23:08:54;;;;;;;12.85;9.35;;;14.60;99.90;;;;;;10464500;28;20036;-85
2022/06/01 23:13:54;;;;;;;12.57;9.45;;;14.50;99.90;;;;;;10478736;28;20484;-89
2022/06/01 23:18:55;;;;;;;13.50;8.95;;;14.50;99.90;;;;;;10478507;28;20036;-87
2022/06/01 23:23:56;;;;;;;12.63;8.77;;;14.50;99.90;;;;;;10464080;28;20500;-86
2022/06/01 23:29:26;;;;;;;13.43;9.68;;;14.50;99.90;;;;;;10467010;28;20098;-86
2022/06/01 23:34:51;;;;;;;12.10;9.32;;;14.50;99.90;;;;;;10459101;28;20411;-86
2022/06/01 23:40:11;;;;;;;19.02;12.95;;;14.50;99.90;;;;;;10469586;28;20543;-86
2022/06/01 23:45:37;;;;;;;20.70;11.93;;;14.50;99.90;;;;;;10455573;28;20028;-85
2022/06/01 23:50:40;;;;;;;10.20;6.18;;;14.60;99.90;;;;;;10464443;28;20109;-86
2022/06/01 23:56:09;;;;;;;4.82;3.50;;;14.70;99.90;;;;;;10453478;28;20090;-84
